Time;durP1;ratioP1;P1;durP2;ratioP2;P2;SDS_P1;SDS_P2;PMS_P1;PMS_P2;Temp;Humidity;BMP_temperature;BMP_pressure;BME280_temperature;BME280_humidity;BME280_pressure;Samples;Min_cycle;Max_cycle;Signal;HPM_P1;HPM_P2
2022/09/07 00:01:54;;;;;;;3.87;1.87;;;;;;;7.96;72.63;100277.30;1710952;82;20920;-59
2022/09/07 00:04:21;;;;;;;2.67;1.57;;;;;;;7.97;72.62;100279.00;1712017;83;21019;-59
2022/09/07 00:06:48;;;;;;;4.92;2.35;;;;;;;7.98;72.75;100281.98;1693269;83;21476;-59
2022/09/07 00:09:14;;;;;;;5.75;1.90;;;;;;;7.99;72.73;100272.02;1704787;83;20909;-59
2022/09/07 00:11:41;;;;;;;2.85;1.87;;;;;;;8.00;72.77;100269.35;1688940;84;20926;-59
2022/09/07 00:14:08;;;;;;;5.63;1.80;;;;;;;7.98;72.84;100263.36;1684055;84;21448;-59
2022/09/07 00:16:35;;;;;;;3.42;1.77;;;;;;;7.95;72.82;100267.77;1670586;84;21144;-59
2022/09/07 00:19:03;;;;;;;2.83;1.82;;;;;;;7.88;72.85;100261.91;1690604;83;20915;-59
2022/09/07 00:21:30;;;;;;;2.00;1.42;;;;;;;7.86;72.87;100258.48;1692257;83;20963;-59
2022/09/07 00:23:57;;;;;;;2.80;1.90;;;;;;;7.89;72.94;100252.35;1687093;83;20928;-59
2022/09/07 00:26:28;;;;;;;3.10;1.67;;;;;;;7.91;72.93;100258.37;1711520;83;21444;-59
2022/09/07 00:29:00;;;;;;;2.65;1.82;;;;;;;7.91;72.90;100253.17;1691851;84;21006;-59
2022/09/07 00:31:29;;;;;;;2.95;1.72;;;;;;;7.87;72.88;100254.13;1690600;83;20922;-59
2022/09/07 00:33:59;;;;;;;2.60;2.00;;;;;;;7.81;72.84;100253.43;1688280;83;20907;-59
2022/09/07 00:36:26;;;;;;;3.72;2.12;;;;;;;7.77;72.83;100264.79;1682130;84;21540;-59
2022/09/07 00:38:53;;;;;;;3.00;1.85;;;;;;;7.73;72.80;100259.28;1683630;83;26481;-59
2022/09/07 00:41:21;;;;;;;2.42;1.77;;;;;;;7.68;72.88;100255.95;1702816;83;21110;-59
2022/09/07 00:43:55;;;;;;;5.42;2.12;;;;;;;7.64;72.89;100247.81;1684143;83;20954;-59
2022/09/07 00:46:33;;;;;;;3.47;1.75;;;;;;;7.59;72.92;100252.30;1704082;83;20934;-59
2022/09/07 00:49:08;;;;;;;2.30;1.70;;;;;;;7.53;73.00;100245.95;1699305;83;20874;-59
2022/09/07 00:51:56;;;;;;;4.05;1.60;;;;;;;7.48;73.14;100249.11;1686136;83;20981;-59
2022/09/07 00:54:27;;;;;;;3.95;2.10;;;;;;;7.45;73.22;100256.98;1682390;84;21046;-59
2022/09/07 00:56:54;;;;;;;3.37;2.20;;;;;;;7.40;73.17;100257.97;1682627;83;21146;-59
2022/09/07 00:59:25;;;;;;;3.83;2.07;;;;;;;7.35;73.15;100258.53;1704522;83;22459;-59
2022/09/07 01:01:53;;;;;;;3.77;2.35;;;;;;;7.29;73.18;100257.39;1700327;82;20892;-60
2022/09/07 01:04:22;;;;;;;3.20;2.30;;;;;;;7.23;73.23;100253.66;1685641;83;20926;-60
2022/09/07 01:06:48;;;;;;;3.70;1.87;;;;;;;7.20;73.31;100252.44;1701171;83;21459;-59
2022/09/07 01:09:19;;;;;;;3.83;2.20;;;;;;;7.18;73.41;100256.80;1695364;83;20922;-59
2022/09/07 01:11:49;;;;;;;2.55;2.02;;;;;;;7.16;73.44;100255.98;1697766;83;21430;-59
2022/09/07 01:14:15;;;;;;;5.85;2.12;;;;;;;7.16;73.45;100258.58;1698984;83;21388;-59
2022/09/07 01:17:13;;;;;;;2.60;2.20;;;;;;;7.12;73.50;100251.77;1711434;83;20938;-59
2022/09/07 01:20:22;;;;;;;4.90;2.40;;;;;;;7.08;73.49;100250.12;1700552;83;21212;-59
2022/09/07 01:23:12;;;;;;;3.33;2.40;;;;;;;7.02;73.62;100250.27;1666469;85;20951;-59
2022/09/07 01:26:13;;;;;;;3.65;2.55;;;;;;;6.94;73.62;100248.70;1684993;83;20923;-59
2022/09/07 01:28:41;;;;;;;5.10;2.17;;;;;;;6.89;73.83;100249.28;1638566;87;21007;-59
2022/09/07 01:31:28;;;;;;;5.85;2.65;;;;;;;6.86;73.97;100245.47;1638698;86;20978;-59
2022/09/07 01:34:21;;;;;;;4.17;2.05;;;;;;;6.86;74.03;100244.59;1592833;89;21083;-59
2022/09/07 01:36:59;;;;;;;4.33;2.10;;;;;;;6.89;74.14;100244.51;1592171;88;20958;-59
2022/09/07 01:39:34;;;;;;;4.65;1.87;;;;;;;6.94;74.18;100241.36;1595663;89;20907;-59
2022/09/07 01:42:11;;;;;;;6.05;1.90;;;;;;;6.99;74.11;100247.75;1589464;88;21084;-59
2022/09/07 01:44:58;;;;;;;4.92;2.10;;;;;;;7.01;74.08;100240.80;1591258;89;20969;-59
2022/09/07 01:47:42;;;;;;;7.22;2.40;;;;;;;7.01;74.14;100231.25;1596337;88;21038;-59
2022/09/07 01:50:19;;;;;;;7.20;2.50;;;;;;;7.02;74.20;100232.09;1562892;90;21042;-59
2022/09/07 01:53:08;;;;;;;5.47;2.72;;;;;;;7.02;74.31;100229.50;1545896;90;21206;-59
2022/09/07 01:55:52;;;;;;;3.42;2.20;;;;;;;7.02;74.34;100226.91;1581416;90;21008;-59
2022/09/07 01:58:57;;;;;;;4.00;2.10;;;;;;;7.02;74.29;100225.16;1587304;90;21004;-59
2022/09/07 02:01:40;;;;;;;3.80;2.40;;;;;;;7.03;74.48;100220.81;1567316;90;21014;-59
2022/09/07 02:04:12;;;;;;;3.72;2.10;;;;;;;7.02;74.45;100221.72;1567636;90;21019;-59
2022/09/07 02:06:55;;;;;;;3.65;2.00;;;;;;;6.99;74.44;100234.77;1600218;86;20978;-59
2022/09/07 02:09:48;;;;;;;3.02;1.90;;;;;;;6.91;74.36;100220.22;1635670;85;21039;-59
2022/09/07 02:12:35;;;;;;;3.00;2.02;;;;;;;6.85;74.42;100227.31;1698230;83;21461;-59
2022/09/07 02:15:07;;;;;;;3.77;2.20;;;;;;;6.78;74.49;100234.41;1709567;83;20998;-59
2022/09/07 02:17:45;;;;;;;2.10;1.90;;;;;;;6.69;74.53;100227.69;1691884;83;20883;-59
2022/09/07 02:20:17;;;;;;;;;;;;;;;6.63;74.62;100223.07;1723023;82;20926;-59
2022/09/07 02:22:48;;;;;;;4.22;2.42;;;;;;;6.58;74.83;100223.61;1710641;83;20141;-59
2022/09/07 02:25:20;;;;;;;4.87;2.12;;;;;;;6.55;74.86;100221.09;1714416;83;20934;-59
2022/09/07 02:27:57;;;;;;;2.92;2.17;;;;;;;6.54;74.95;100221.99;1684775;84;22122;-59
2022/09/07 02:30:24;;;;;;;3.42;2.05;;;;;;;6.57;75.05;100218.02;1694313;83;20923;-59
2022/09/07 02:32:51;;;;;;;3.22;2.30;;;;;;;6.59;75.02;100215.81;1691504;83;21463;-59
2022/09/07 02:35:18;;;;;;;2.60;2.20;;;;;;;6.60;75.11;100213.61;1694493;83;20952;-59
2022/09/07 02:37:46;;;;;;;2.70;2.10;;;;;;;6.63;75.14;100213.98;1699689;83;21452;-60
2022/09/07 02:40:13;;;;;;;5.40;2.08;;;;;;;6.64;75.09;100210.52;1687880;84;21963;-60
2022/09/07 02:42:40;;;;;;;;;;;;;;;6.66;75.23;100213.91;1678531;84;20896;-60
2022/09/07 02:45:10;;;;;;;2.98;2.00;;;;;;;6.67;75.29;100210.45;1677380;84;21439;-59
2022/09/07 02:48:18;;;;;;;4.22;2.65;;;;;;;6.67;75.28;100210.45;1695332;82;20961;-59
2022/09/07 02:50:56;;;;;;;2.62;2.30;;;;;;;6.67;75.23;100207.86;1634002;85;21053;-59
2022/09/07 02:53:44;;;;;;;4.00;2.25;;;;;;;6.63;75.17;100211.39;1637855;85;21056;-59
2022/09/07 02:56:55;;;;;;;3.10;1.80;;;;;;;6.57;75.19;100207.65;1614658;86;20954;-59
2022/09/07 02:59:42;;;;;;;3.22;2.00;;;;;;;6.50;75.21;100206.50;1637669;87;20998;-59
2022/09/07 03:02:23;;;;;;;3.60;2.20;;;;;;;6.43;75.26;100206.66;1636759;85;28205;-59
2022/09/07 03:05:18;;;;;;;3.15;2.27;;;;;;;6.37;75.37;100198.58;1646786;85;20988;-59
2022/09/07 03:07:54;;;;;;;3.95;2.90;;;;;;;6.30;75.48;100203.48;1620598;86;21519;-59
2022/09/07 03:10:22;;;;;;;4.67;2.12;;;;;;;6.25;75.60;100196.27;1626449;87;21038;-59
2022/09/07 03:12:49;;;;;;;;;;;;;;;6.22;75.65;100192.45;1653156;86;20911;-59
2022/09/07 03:15:22;;;;;;;6.40;2.60;;;;;;;6.20;75.89;100186.43;1644403;85;20113;-60
2022/09/07 03:17:49;;;;;;;5.97;2.17;;;;;;;6.20;75.95;100196.80;1631891;85;20986;-59
2022/09/07 03:20:17;;;;;;;3.37;2.05;;;;;;;6.22;76.04;100197.63;1638915;86;21097;-59
2022/09/07 03:22:45;;;;;;;3.83;2.10;;;;;;;6.22;75.98;100187.27;1648846;85;20998;-59
2022/09/07 03:25:13;;;;;;;3.17;2.30;;;;;;;6.20;75.98;100182.55;1652621;84;20959;-59
2022/09/07 03:27:40;;;;;;;3.58;2.35;;;;;;;6.21;76.04;100194.61;1690482;83;20953;-59
2022/09/07 03:30:09;;;;;;;2.92;2.02;;;;;;;6.19;75.97;100190.77;1697056;83;21999;-59
2022/09/07 03:32:38;;;;;;;2.33;2.12;;;;;;;6.18;76.10;100193.38;1695308;83;21009;-59
2022/09/07 03:35:06;;;;;;;4.75;2.50;;;;;;;6.18;76.06;100198.57;1680313;84;20873;-59
2022/09/07 03:37:37;;;;;;;3.22;2.12;;;;;;;6.21;76.20;100190.72;1697599;82;20951;-59
2022/09/07 03:40:06;;;;;;;3.20;2.42;;;;;;;6.27;76.33;100187.98;1686439;83;20986;-59
2022/09/07 03:42:33;;;;;;;5.95;2.55;;;;;;;6.35;76.33;100200.34;1692380;84;20930;-59
2022/09/07 03:45:00;;;;;;;2.70;2.05;;;;;;;6.41;76.26;100201.53;1679864;84;21461;-59
2022/09/07 03:47:27;;;;;;;3.83;2.45;;;;;;;6.43;76.23;100208.80;1693225;82;20939;-59
2022/09/07 03:49:53;;;;;;;3.77;2.33;;;;;;;6.45;76.27;100209.64;1712981;81;21416;-59
2022/09/07 03:52:20;;;;;;;7.80;2.20;;;;;;;6.48;76.23;100210.86;1689655;84;20947;-59
2022/09/07 03:54:46;;;;;;;6.20;2.00;;;;;;;6.48;76.24;100216.05;1687571;84;21010;-60
2022/09/07 03:57:13;;;;;;;8.87;2.43;;;;;;;6.48;76.20;100210.86;1692762;83;21050;-59
2022/09/07 03:59:40;;;;;;;20.17;4.17;;;;;;;6.46;76.17;100204.84;1691440;83;20875;-59
2022/09/07 04:02:07;;;;;;;7.25;2.85;;;;;;;6.42;75.93;100208.86;1699260;83;21433;-59
2022/09/07 04:04:33;;;;;;;4.27;2.47;;;;;;;6.27;75.89;100213.92;1684520;84;20922;-59
2022/09/07 04:07:00;;;;;;;7.20;2.60;;;;;;;6.19;75.96;100214.52;1694172;82;21150;-59
2022/09/07 04:09:27;;;;;;;4.03;2.40;;;;;;;6.12;75.92;100222.04;1688838;84;21180;-59
2022/09/07 04:11:53;;;;;;;4.00;2.40;;;;;;;6.05;76.10;100216.98;1689487;83;20953;-59
2022/09/07 04:14:20;;;;;;;8.55;2.10;;;;;;;6.02;76.24;100217.06;1708538;82;21143;-59
2022/09/07 04:16:47;;;;;;;10.63;3.17;;;;;;;6.01;76.36;100215.33;1709083;83;20991;-60
2022/09/07 04:19:14;;;;;;;5.08;2.40;;;;;;;6.15;76.79;100214.20;1706864;83;20961;-59
2022/09/07 04:21:42;;;;;;;3.98;2.52;;;;;;;6.67;77.20;100211.30;1687344;83;22066;-59
2022/09/07 04:24:09;;;;;;;5.17;3.12;;;;;;;7.26;77.09;100202.92;1689751;84;21499;-58
2022/09/07 04:26:36;;;;;;;6.90;2.62;;;;;;;7.91;76.96;100201.16;1707459;83;20914;-59
2022/09/07 04:29:05;;;;;;;6.28;1.92;;;;;;;8.54;76.49;100197.55;1690381;84;20954;-59
2022/09/07 04:31:34;;;;;;;4.17;1.65;;;;;;;9.15;76.22;100197.31;1704369;82;20967;-59
2022/09/07 04:34:01;;;;;;;2.87;1.90;;;;;;;9.74;75.88;100188.30;1692898;83;21535;-60
2022/09/07 04:36:28;;;;;;;;;;;;;;;10.40;75.82;100184.10;1713032;83;21500;-60
2022/09/07 04:38:58;;;;;;;4.30;1.60;;;;;;;11.04;75.58;100188.95;1698066;83;20139;-61
2022/09/07 04:41:27;;;;;;;3.60;1.60;;;;;;;11.80;75.81;100181.70;1694854;84;20973;-60
2022/09/07 04:44:00;;;;;;;4.83;1.80;;;;;;;12.65;75.71;100183.87;1672576;84;20962;-60
2022/09/07 04:46:33;;;;;;;7.83;1.87;;;;;;;13.40;75.00;100177.99;1712902;82;21110;-61
2022/09/07 04:49:04;;;;;;;6.22;2.17;;;;;;;14.04;74.41;100178.52;1692764;83;21956;-60
2022/09/07 04:51:32;;;;;;;4.25;2.47;;;;;;;14.64;73.85;100180.94;1713189;83;20876;-61
2022/09/07 04:54:01;;;;;;;6.10;1.90;;;;;;;15.17;73.43;100178.30;1723726;82;20951;-61
2022/09/07 04:56:28;;;;;;;10.50;2.15;;;;;;;15.80;73.45;100172.77;1714385;83;20938;-60
2022/09/07 04:58:54;;;;;;;;;;;;;;;16.31;72.72;100175.70;1715807;82;20970;-61
2022/09/07 05:01:23;;;;;;;6.30;2.08;;;;;;;16.70;71.85;100172.75;1723990;82;20450;-60
2022/09/07 05:03:50;;;;;;;4.08;1.80;;;;;;;17.11;71.97;100171.84;1719365;83;20989;-59
2022/09/07 05:06:19;;;;;;;7.70;1.67;;;;;;;17.53;72.30;100168.98;1695840;83;20914;-59
2022/09/07 05:08:49;;;;;;;4.92;1.50;;;;;;;18.00;71.48;100156.44;1683919;84;20942;-59
2022/09/07 05:11:16;;;;;;;4.67;1.60;;;;;;;17.99;70.78;100144.68;1703312;83;21100;-58
2022/09/07 05:13:43;;;;;;;5.28;1.70;;;;;;;17.78;69.83;100143.03;1701270;83;20989;-60
2022/09/07 05:16:20;;;;;;;3.20;1.47;;;;;;;17.67;69.60;100152.58;1698750;83;21517;-59
2022/09/07 05:18:53;;;;;;;2.50;1.27;;;;;;;17.84;69.61;100150.55;1705586;83;21402;-59
2022/09/07 05:21:24;;;;;;;15.78;2.70;;;;;;;17.95;69.58;100145.83;1673412;84;20915;-59
2022/09/07 05:23:53;;;;;;;2.77;1.57;;;;;;;17.90;68.90;100135.62;1718432;83;21055;-60
2022/09/07 05:26:22;;;;;;;4.05;1.10;;;;;;;17.72;68.17;100132.91;1714523;82;20907;-61
2022/09/07 05:28:49;;;;;;;5.75;1.87;;;;;;;17.52;67.93;100129.87;1706367;82;21479;-60
2022/09/07 05:31:24;;;;;;;5.55;1.65;;;;;;;17.31;67.25;100120.78;1720998;83;20891;-61
2022/09/07 05:33:53;;;;;;;5.22;1.47;;;;;;;17.08;67.33;100131.12;1715381;81;21043;-61
2022/09/07 05:36:21;;;;;;;1.82;0.98;;;;;;;16.95;67.14;100126.33;1690461;83;21085;-61
2022/09/07 05:38:48;;;;;;;5.97;1.32;;;;;;;16.97;67.11;100125.28;1689633;84;21468;-61
2022/09/07 05:41:18;;;;;;;13.00;1.80;;;;;;;17.14;66.97;100124.13;1704567;83;20962;-62
2022/09/07 05:43:45;;;;;;;6.72;1.60;;;;;;;17.49;67.05;100118.20;1695583;83;21527;-60
2022/09/07 05:46:13;;;;;;;6.17;1.75;;;;;;;17.94;66.81;100117.26;1701641;83;21022;-60
2022/09/07 05:48:42;;;;;;;4.92;1.98;;;;;;;18.45;66.70;100126.31;1699702;83;21085;-60
2022/09/07 05:51:09;;;;;;;3.12;1.72;;;;;;;18.80;65.75;100121.57;1699519;83;20940;-60
2022/09/07 05:53:37;;;;;;;9.85;2.02;;;;;;;18.92;65.52;100119.31;1680158;84;20915;-60
2022/09/07 05:56:05;;;;;;;7.50;2.20;;;;;;;19.04;64.91;100125.95;1704663;83;20990;-60
2022/09/07 05:58:32;;;;;;;11.22;2.40;;;;;;;18.96;64.61;100120.78;1700297;83;21017;-61
2022/09/07 06:01:05;;;;;;;10.28;2.37;;;;;;;18.94;64.24;100120.05;1703058;83;21038;-60
2022/09/07 06:03:35;;;;;;;11.10;2.67;;;;;;;18.97;64.27;100131.72;1705337;82;21464;-60
2022/09/07 06:06:10;;;;;;;8.83;2.80;;;;;;;19.24;64.29;100122.65;1702915;83;20993;-60
2022/09/07 06:08:39;;;;;;;6.15;1.60;;;;;;;19.39;63.79;100123.25;1704830;82;20972;-60
2022/09/07 06:11:11;;;;;;;9.85;3.70;;;;;;;19.56;63.72;100128.08;1666666;84;20934;-59
2022/09/07 06:13:38;;;;;;;8.60;2.47;;;;;;;19.98;63.53;100124.83;1694017;83;22372;-60
2022/09/07 06:16:07;;;;;;;10.93;3.10;;;;;;;20.26;63.14;100130.91;1711898;83;21644;-59
2022/09/07 06:18:37;;;;;;;12.10;2.98;;;;;;;20.29;62.23;100124.03;1700022;83;21467;-58
2022/09/07 06:21:13;;;;;;;19.67;2.98;;;;;;;20.33;62.28;100115.33;1698560;83;20953;-61
2022/09/07 06:23:41;;;;;;;4.50;1.75;;;;;;;20.53;61.63;100117.73;1707410;83;21013;-61
2022/09/07 06:26:10;;;;;;;6.67;1.75;;;;;;;20.46;60.79;100112.53;1683832;84;21050;-61
2022/09/07 06:28:40;;;;;;;6.87;1.98;;;;;;;20.42;60.47;100109.78;1683084;84;20914;-61
2022/09/07 06:31:13;;;;;;;4.92;1.75;;;;;;;20.29;59.94;100117.89;1694943;84;20878;-61
2022/09/07 06:33:41;;;;;;;9.68;2.02;;;;;;;20.32;59.70;100114.50;1673987;84;21491;-61
2022/09/07 06:36:15;;;;;;;6.62;1.65;;;;;;;20.32;59.45;100111.84;1712383;83;20982;-61
2022/09/07 06:38:43;;;;;;;12.45;2.55;;;;;;;20.46;59.11;100113.86;1695081;83;21979;-61
2022/09/07 06:41:13;;;;;;;21.20;3.05;;;;;;;20.54;58.84;100116.75;1697138;83;20915;-61
2022/09/07 06:43:40;;;;;;;16.95;2.00;;;;;;;20.72;58.52;100117.86;1699403;84;20915;-60
2022/09/07 06:46:07;;;;;;;3.33;1.17;;;;;;;20.90;58.43;100123.95;1691368;83;21667;-61
2022/09/07 06:48:34;;;;;;;3.65;1.57;;;;;;;20.94;57.95;100124.03;1714309;81;21857;-60
2022/09/07 06:51:04;;;;;;;5.17;1.75;;;;;;;21.00;57.57;100120.86;1706595;83;21048;-61
2022/09/07 06:53:34;;;;;;;3.87;1.50;;;;;;;20.98;57.40;100113.53;1690427;84;20974;-61
2022/09/07 06:56:07;;;;;;;4.97;1.80;;;;;;;21.15;57.39;100130.19;1694729;83;21014;-62
2022/09/07 06:58:34;;;;;;;2.58;1.67;;;;;;;21.40;57.16;100126.80;1700489;83;21326;-61
2022/09/07 07:01:13;;;;;;;3.83;1.67;;;;;;;21.51;56.57;100126.72;1696390;83;20934;-59
2022/09/07 07:03:41;;;;;;;2.10;1.27;;;;;;;21.68;56.42;100123.92;1700952;83;21219;-60
2022/09/07 07:06:09;;;;;;;13.65;1.77;;;;;;;21.86;55.95;100119.63;1693523;83;20902;-60
2022/09/07 07:08:36;;;;;;;5.75;1.52;;;;;;;21.82;55.62;100120.05;1703404;82;20962;-59
2022/09/07 07:11:09;;;;;;;3.60;1.42;;;;;;;21.61;55.81;100124.92;1713884;83;20973;-60
2022/09/07 07:13:38;;;;;;;3.75;1.57;;;;;;;21.33;55.30;100121.13;1715503;82;20903;-60
2022/09/07 07:16:14;;;;;;;5.85;1.40;;;;;;;20.97;55.11;100123.77;1668091;84;21021;-60
2022/09/07 07:18:42;;;;;;;4.78;1.80;;;;;;;20.72;55.05;100119.19;1704805;83;21005;-60
2022/09/07 07:21:12;;;;;;;10.18;2.25;;;;;;;20.33;54.76;100126.81;1692922;83;20997;-60
2022/09/07 07:23:40;;;;;;;11.28;1.90;;;;;;;19.96;54.43;100127.59;1691376;83;20938;-60
2022/09/07 07:26:16;;;;;;;3.20;1.27;;;;;;;19.68;54.49;100138.21;1690309;83;20943;-60
2022/09/07 07:28:44;;;;;;;2.75;1.40;;;;;;;19.55;54.35;100137.45;1692700;83;21232;-60
2022/09/07 07:31:11;;;;;;;3.42;1.20;;;;;;;19.33;54.04;100128.55;1693386;83;21504;-60
2022/09/07 07:33:38;;;;;;;3.35;1.62;;;;;;;19.12;53.48;100139.45;1684664;84;21003;-60
2022/09/07 07:36:20;;;;;;;1.35;1.22;;;;;;;18.90;53.51;100134.94;1700687;83;21002;-60
2022/09/07 07:38:49;;;;;;;2.15;1.32;;;;;;;18.82;53.08;100130.25;1687492;84;20942;-60
2022/09/07 07:41:19;;;;;;;3.87;1.30;;;;;;;18.61;52.90;100131.80;1713324;83;21044;-60
2022/09/07 07:43:47;;;;;;;7.58;1.12;;;;;;;18.58;53.02;100130.72;1701187;83;21484;-60
2022/09/07 07:46:17;;;;;;;3.20;1.00;;;;;;;18.59;52.71;100129.74;1710867;83;21436;-60
2022/09/07 07:48:48;;;;;;;5.67;1.05;;;;;;;18.56;52.43;100134.30;1683822;84;20962;-61
2022/09/07 07:51:15;;;;;;;8.33;1.57;;;;;;;18.56;52.47;100130.33;1683502;84;21599;-60
2022/09/07 07:53:41;;;;;;;2.75;0.80;;;;;;;18.59;52.28;100128.42;1681672;84;21010;-60
2022/09/07 07:56:10;;;;;;;1.62;1.17;;;;;;;18.65;52.13;100127.96;1719543;83;20902;-60
2022/09/07 07:58:38;;;;;;;2.27;0.95;;;;;;;18.62;51.96;100128.19;1687354;83;20999;-60
2022/09/07 08:01:15;;;;;;;1.42;0.90;;;;;;;18.60;52.00;100125.68;1689167;83;21023;-60
2022/09/07 08:03:43;;;;;;;1.80;0.80;;;;;;;18.56;50.96;100119.75;1689962;83;21045;-61
2022/09/07 08:06:14;;;;;;;2.50;0.80;;;;;;;18.29;50.40;100119.16;1688690;83;21036;-60
2022/09/07 08:08:41;;;;;;;1.75;0.82;;;;;;;18.24;51.04;100118.66;1691747;83;21005;-59
2022/09/07 08:11:12;;;;;;;3.92;1.07;;;;;;;18.27;50.95;100119.75;1697388;83;21002;-60
2022/09/07 08:13:41;;;;;;;7.60;0.85;;;;;;;18.33;50.95;100124.58;1697734;84;20969;-60
2022/09/07 08:16:09;;;;;;;0.82;0.75;;;;;;;18.39;51.17;100120.16;1698478;83;21026;-61
2022/09/07 08:18:37;;;;;;;3.98;1.05;;;;;;;18.53;50.68;100113.38;1695001;83;21043;-61
2022/09/07 08:21:08;;;;;;;2.40;0.80;;;;;;;18.54;50.60;100112.89;1711567;83;20943;-61
2022/09/07 08:23:36;;;;;;;13.85;1.10;;;;;;;18.51;50.58;100119.27;1716776;83;21476;-60
2022/09/07 08:26:03;;;;;;;1.52;0.93;;;;;;;18.53;50.62;100117.34;1683827;83;22324;-60
2022/09/07 08:28:32;;;;;;;4.72;0.90;;;;;;;18.53;50.28;100118.66;1690375;84;20894;-60
2022/09/07 08:31:04;;;;;;;2.87;1.15;;;;;;;18.52;50.37;100119.63;1687290;83;21541;-60
2022/09/07 08:33:31;;;;;;;5.03;1.00;;;;;;;18.63;50.30;100120.64;1708151;82;20911;-60
2022/09/07 08:36:01;;;;;;;3.42;0.78;;;;;;;18.71;50.33;100126.20;1660470;84;21547;-58
2022/09/07 08:38:30;;;;;;;2.35;0.82;;;;;;;18.80;50.22;100118.92;1667195;84;20992;-60
2022/09/07 08:40:57;;;;;;;3.52;1.10;;;;;;;18.78;49.56;100123.48;1682128;84;21024;-60
2022/09/07 08:43:39;;;;;;;;;;;;;;;18.68;49.24;100119.80;1687460;84;21874;-60
2022/09/07 08:46:23;;;;;;;2.87;0.82;;;;;;;18.59;49.38;100116.52;1695668;83;20493;-60
2022/09/07 08:48:49;;;;;;;7.35;0.98;;;;;;;18.60;49.13;100113.78;1671079;85;20922;-61
2022/09/07 08:51:27;;;;;;;4.87;0.95;;;;;;;18.67;49.26;100118.13;1681668;84;21488;-60
2022/09/07 08:53:54;;;;;;;1.45;0.60;;;;;;;18.70;49.21;100115.24;1573017;89;20965;-61
2022/09/07 08:56:26;;;;;;;2.98;1.10;;;;;;;18.82;48.85;100117.02;1572887;89;26950;-62
2022/09/07 08:58:53;;;;;;;2.60;1.00;;;;;;;18.89;48.92;100118.22;1571378;89;21089;-62
2022/09/07 09:01:29;;;;;;;;;;;;;;;18.92;48.96;100117.98;1572982;89;20991;-64
2022/09/07 09:03:56;;;;;;;3.70;0.90;;;;;;;19.00;48.56;100121.39;1571113;89;20749;-62
2022/09/07 09:06:30;;;;;;;4.50;1.00;;;;;;;19.05;49.13;100118.40;1570629;89;21074;-61
2022/09/07 09:09:53;;;;;;;2.20;1.17;;;;;;;19.22;48.92;100116.13;1588350;88;21067;-62
2022/09/07 09:12:32;;;;;;;1.80;1.12;;;;;;;19.21;48.38;100106.52;1576073;89;21584;-62
2022/09/07 09:15:25;;;;;;;2.17;0.88;;;;;;;19.10;48.50;100101.66;1586901;88;21022;-61
2022/09/07 09:18:12;;;;;;;2.30;0.98;;;;;;;19.13;48.43;100106.72;1588042;88;21006;-61
2022/09/07 09:20:56;;;;;;;4.72;1.10;;;;;;;19.21;47.87;100103.00;1573101;89;20976;-61
2022/09/07 09:23:26;;;;;;;5.55;1.05;;;;;;;19.07;47.89;100099.25;1570754;89;21391;-60
2022/09/07 09:26:24;;;;;;;3.52;1.10;;;;;;;19.11;47.91;100092.78;1569976;91;21561;-61
2022/09/07 09:28:51;;;;;;;2.50;1.15;;;;;;;19.00;47.38;100086.50;1576463;89;21005;-61
2022/09/07 09:31:21;;;;;;;1.90;1.02;;;;;;;18.92;47.67;100091.53;1661341;84;20930;-61
2022/09/07 09:34:13;;;;;;;1.70;1.20;;;;;;;19.00;47.52;100091.79;1698438;83;21001;-61
2022/09/07 09:36:47;;;;;;;6.25;1.20;;;;;;;19.05;47.29;100086.16;1675666;83;21916;-61
2022/09/07 09:39:35;;;;;;;2.22;0.88;;;;;;;19.08;47.48;100082.44;1685916;83;22207;-61
2022/09/07 09:42:19;;;;;;;0.90;0.70;;;;;;;19.25;47.55;100076.67;1686125;84;21485;-61
2022/09/07 09:44:46;;;;;;;1.22;0.88;;;;;;;19.35;47.29;100076.78;1624303;85;20974;-61
2022/09/07 09:47:34;;;;;;;6.17;1.10;;;;;;;19.31;46.68;100080.16;1654137;85;21025;-64
2022/09/07 09:50:05;;;;;;;4.25;1.05;;;;;;;19.17;46.68;100072.45;1648098;85;21097;-62
2022/09/07 09:52:35;;;;;;;3.35;1.30;;;;;;;19.11;46.79;100071.61;1650799;85;20941;-62
2022/09/07 09:55:05;;;;;;;2.65;0.80;;;;;;;19.04;46.58;100066.41;1654090;86;20994;-61
2022/09/07 09:57:51;;;;;;;3.83;1.02;;;;;;;19.03;46.85;100061.61;1649373;86;20933;-61
2022/09/07 10:00:23;;;;;;;2.40;0.98;;;;;;;19.15;46.83;100057.16;1651354;86;20932;-62
2022/09/07 10:03:16;;;;;;;5.28;1.00;;;;;;;19.16;46.66;100053.57;1650194;86;21735;-61
2022/09/07 10:05:46;;;;;;;8.90;1.00;;;;;;;19.19;46.64;100053.33;1646355;86;21066;-62
2022/09/07 10:08:27;;;;;;;1.47;0.80;;;;;;;19.22;46.61;100050.44;1650550;86;21034;-62
2022/09/07 10:11:01;;;;;;;3.12;0.98;;;;;;;19.19;46.31;100053.33;1654383;85;20953;-62
2022/09/07 10:13:36;;;;;;;3.50;0.93;;;;;;;19.21;46.48;100052.25;1648885;85;20971;-62
2022/09/07 10:16:05;;;;;;;3.40;0.85;;;;;;;19.28;46.39;100049.95;1641158;86;21106;-61
2022/09/07 10:18:55;;;;;;;3.22;0.93;;;;;;;19.33;46.62;100049.12;1645894;86;21405;-61
2022/09/07 10:21:26;;;;;;;2.85;0.80;;;;;;;19.37;46.01;100037.80;1661723;83;21488;-63
2022/09/07 10:23:59;;;;;;;5.85;1.02;;;;;;;19.34;46.22;100038.88;1702617;83;20914;-62
2022/09/07 10:26:32;;;;;;;2.87;0.90;;;;;;;19.38;46.39;100045.63;1699820;83;21441;-61
2022/09/07 10:29:28;;;;;;;4.12;0.90;;;;;;;19.42;46.34;100041.77;1699869;83;21061;-62
2022/09/07 10:32:17;;;;;;;1.42;0.80;;;;;;;19.37;45.94;100046.58;1700769;83;21806;-62
2022/09/07 10:34:52;;;;;;;1.15;0.70;;;;;;;19.38;45.94;100042.98;1688045;83;21009;-62
2022/09/07 10:37:39;;;;;;;2.98;0.95;;;;;;;19.45;45.89;100046.81;1699951;83;21523;-61
2022/09/07 10:40:26;;;;;;;0.85;0.70;;;;;;;19.44;45.48;100050.44;1686106;83;21317;-61
2022/09/07 10:43:01;;;;;;;2.30;0.82;;;;;;;19.28;45.12;100046.47;1637412;85;21079;-61
2022/09/07 10:45:41;;;;;;;2.10;0.88;;;;;;;19.23;45.47;100046.82;1637818;85;21029;-62
2022/09/07 10:48:16;;;;;;;4.55;0.95;;;;;;;19.26;45.37;100045.74;1664502;84;20990;-63
2022/09/07 10:50:50;;;;;;;3.60;0.80;;;;;;;19.29;45.46;100048.98;1656215;84;20942;-63
2022/09/07 10:53:40;;;;;;;3.95;1.00;;;;;;;19.42;45.45;100047.06;1652329;85;20971;-62
2022/09/07 10:56:21;;;;;;;18.45;1.07;;;;;;;19.56;45.37;100045.13;1648402;85;21706;-62
2022/09/07 10:59:08;;;;;;;6.85;1.00;;;;;;;19.43;45.07;100041.28;1652746;85;20995;-62
2022/09/07 11:01:58;;;;;;;1.87;1.10;;;;;;;19.40;45.28;100035.73;1636074;86;20949;-60
2022/09/07 11:05:04;;;;;;;7.53;1.20;;;;;;;19.52;45.17;100035.73;1629673;86;21082;-61
2022/09/07 11:07:51;;;;;;;12.98;1.32;;;;;;;19.54;44.90;100037.78;1638408;85;20999;-61
2022/09/07 11:10:48;;;;;;;3.98;1.40;;;;;;;19.38;44.58;100037.69;1665040;85;22489;-62
2022/09/07 11:13:21;;;;;;;1.98;1.10;;;;;;;19.31;44.62;100032.98;1660872;84;21505;-61
2022/09/07 11:15:55;;;;;;;4.47;1.10;;;;;;;19.32;44.59;100030.20;1664038;84;20992;-61
2022/09/07 11:18:32;;;;;;;12.93;1.30;;;;;;;19.29;44.52;100030.45;1664210;84;21018;-61
2022/09/07 11:21:02;;;;;;;6.65;1.10;;;;;;;19.35;44.07;100027.34;1692543;83;21005;-61
2022/09/07 11:23:46;;;;;;;3.92;1.15;;;;;;;19.22;43.97;100026.62;1686132;84;21531;-61
2022/09/07 11:26:36;;;;;;;2.35;0.93;;;;;;;19.25;44.40;100026.38;1688407;83;20998;-61
2022/09/07 11:29:14;;;;;;;5.03;1.35;;;;;;;19.38;44.42;100024.91;1695954;83;20974;-61
2022/09/07 11:31:49;;;;;;;3.20;1.00;;;;;;;19.51;44.50;100023.46;1714127;83;21444;-61
2022/09/07 11:34:40;;;;;;;4.97;1.20;;;;;;;19.61;44.38;100021.77;1694525;83;21460;-61
2022/09/07 11:37:18;;;;;;;2.12;0.93;;;;;;;19.68;44.49;100018.52;1689463;83;21064;-61
2022/09/07 11:39:59;;;;;;;3.35;1.12;;;;;;;19.64;44.18;100024.17;1665229;84;20952;-61
2022/09/07 11:42:36;;;;;;;2.00;1.10;;;;;;;19.38;43.89;100028.42;1700501;83;20942;-60
2022/09/07 11:45:29;;;;;;;2.62;0.90;;;;;;;19.17;43.93;100016.37;1695311;82;20934;-61
2022/09/07 11:48:03;;;;;;;4.30;1.57;;;;;;;19.14;43.94;100021.08;1702652;83;20907;-61
2022/09/07 11:50:35;;;;;;;40.23;3.72;;;;;;;19.20;44.17;100017.95;1700452;83;21022;-64
2022/09/07 11:53:09;;;;;;;11.48;1.95;;;;;;;19.28;44.13;100018.19;1693282;83;21436;-61
2022/09/07 11:55:44;;;;;;;4.53;1.35;;;;;;;19.29;43.96;100009.27;1693721;83;20935;-61
2022/09/07 11:58:38;;;;;;;3.65;0.98;;;;;;;19.25;43.90;100007.84;1675922;84;21171;-62
2022/09/07 12:01:28;;;;;;;3.05;1.32;;;;;;;19.20;44.05;100002.06;1690343;83;20940;-61